Norwegian Epic — C6XP7 — position and weather

sailwx.info

Track history (hours):
 
Tides and Currents Weather Stations Pressure Air Temp Water Temp Dewpoint Dewpoint Depression Visibility Wind Speed Wind Dir Waves Ship Positions

Norwegian Epic

Last reported at 2014-Oct-01 00:00 UTC. Time now 2014-Oct-01 20:16 UTC.
Position N 41°18' E 012°12'.

Length 329 m; draft 9 m.

Type: Passenger vessel. MMSI: 311018500.

Wind from 330 at 3 knots

Barometer 1024.0 mb
Air temperature 22.0 ° C
Visibility: greater than 5.4 NM
Water temperature 23.0 ° C

Date/timePositionNaut miles runAvg speedWind from/ knotsBaromVisibWave heightAir tempDewpointWater temp
2014-Oct-01 00:00N 41°18' E 012°12'62 2.6 330 / 31024.0 5.4 22.0 23.0
2014-Sep-30 00:00N 40°36' E 013°12'29916.2 180 / 21027.010.8 22.0 23.0
2014-Sep-29 05:32N 41°17' E 006°40'1616.4
2014-Sep-29 04:32N 41°17' E 006°19'1616.1
2014-Sep-29 03:33N 41°16' E 005°58'1616.2
2014-Sep-29 02:33N 41°16' E 005°36'2216.4
2014-Sep-29 01:13N 41°16' E 005°07'8715.3
2014-Sep-28 19:31N 41°16' E 003°11'1916.1
2014-Sep-28 18:19N 41°16' E 002°45'1216.2
2014-Sep-28 17:33N 41°16' E 002°29'15 7.2
2014-Sep-28 15:31N 41°22' E 002°11'0 0.0
2014-Sep-28 07:31N 41°22' E 002°11'0 0.0
2014-Sep-28 02:24N 41°22' E 002°11'10 7.7
2014-Sep-28 01:09N 41°12' E 002°11'1016.8
2014-Sep-28 00:33N 41°02' E 002°12'1526.0
2014-Sep-28 00:00N 40°48' E 002°06'511.7 100 / 201022.0 5.4 24.0 23.0
2014-Sep-27 23:33N 40°45' E 002°11'1818.2
2014-Sep-27 22:33N 40°27' E 002°11'2019.6
2014-Sep-27 21:33N 40°07' E 002°12'2019.7
2014-Sep-27 20:33N 39°47' E 002°13'1818.2
2014-Sep-27 19:33N 39°30' E 002°19'1414.0
2014-Sep-27 18:33N 39°30' E 002°37'4 3.5
2014-Sep-27 17:33N 39°33' E 002°38'0 0.0
2014-Sep-27 16:33N 39°33' E 002°38'0 0.0
2014-Sep-27 15:31N 39°33' E 002°38'0 0.0
2014-Sep-27 14:32N 39°33' E 002°38'0 0.0
2014-Sep-27 13:32N 39°33' E 002°38'0 0.0
2014-Sep-27 12:33N 39°33' E 002°38'0 0.0
2014-Sep-27 11:34N 39°33' E 002°38'0 0.0
2014-Sep-27 10:33N 39°33' E 002°38'8 8.2
2014-Sep-27 09:33N 39°26' E 002°33'1615.5
2014-Sep-27 08:32N 39°32' E 002°15'1818.6
2014-Sep-27 07:33N 39°48' E 002°27'2020.4
2014-Sep-27 06:33N 40°04' E 002°44'2020.3
2014-Sep-27 05:33N 40°19' E 003°02'2020.5
2014-Sep-27 04:33N 40°33' E 003°21'9321.7
2014-Sep-27 00:16N 41°37' E 004°51'2 8.2
2014-Sep-27 00:00N 41°36' E 004°54'1534.8 340 / 81021.0 21.0 24.0
2014-Sep-26 23:33N 41°48' E 005°06'2222.2
2014-Sep-26 22:33N 42°05' E 005°26'2222.0
2014-Sep-26 21:33N 42°21' E 005°46'2120.9
2014-Sep-26 20:33N 42°35' E 006°07'2020.0
2014-Sep-26 19:33N 42°49' E 006°26'2020.0
2014-Sep-26 18:33N 43°04' E 006°45'2019.5
2014-Sep-26 17:33N 43°21' E 006°58'1211.4
2014-Sep-26 16:33N 43°32' E 007°01'0 0.0
2014-Sep-26 15:27N 43°32' E 007°01'0 0.0
2014-Sep-26 14:31N 43°32' E 007°01'0 0.0
2014-Sep-26 13:29N 43°32' E 007°01'0 0.0
2014-Sep-26 12:29N 43°32' E 007°01'0 0.0
2014-Sep-26 11:30N 43°32' E 007°01'0 0.0
2014-Sep-26 10:31N 43°32' E 007°01'0 0.0
2014-Sep-26 09:31N 43°32' E 007°01'0 0.0
2014-Sep-26 08:32N 43°32' E 007°01'0 0.0
2014-Sep-26 07:33N 43°32' E 007°01'0 0.0
2014-Sep-26 06:33N 43°32' E 007°01'0 0.0
2014-Sep-26 05:31N 43°32' E 007°01'2 2.1
2014-Sep-26 04:34N 43°30' E 007°01'1414.1
2014-Sep-26 03:34N 43°28' E 007°20'1514.8
2014-Sep-26 02:33N 43°29' E 007°41'3113.3
2014-Sep-26 00:11N 43°30' E 008°24'630.7
2014-Sep-26 00:00N 43°24' E 008°24'1023.1 050 / 111018.027.0 22.0 23.0
2014-Sep-25 23:33N 43°30' E 008°35'1312.7
2014-Sep-25 22:33N 43°31' E 008°52'1212.4
2014-Sep-25 21:33N 43°31' E 009°09'1212.2
2014-Sep-25 20:33N 43°31' E 009°26'1212.3
2014-Sep-25 19:33N 43°32' E 009°43'1212.5
2014-Sep-25 18:33N 43°31' E 010°00'1110.8
2014-Sep-25 17:33N 43°32' E 010°15'2 2.0
2014-Sep-25 16:32N 43°33' E 010°18'0 0.0
2014-Sep-25 15:33N 43°33' E 010°18'0 0.0
2014-Sep-25 14:30N 43°33' E 010°18'0 0.0
2014-Sep-25 13:31N 43°33' E 010°18'0 0.0
2014-Sep-25 12:32N 43°33' E 010°18'0 0.0
2014-Sep-25 11:29N 43°33' E 010°18'0 0.0
2014-Sep-25 10:33N 43°33' E 010°18'0 0.0
2014-Sep-25 09:31N 43°33' E 010°18'0 0.0
2014-Sep-25 08:31N 43°33' E 010°18'0 0.0
2014-Sep-25 07:32N 43°33' E 010°18'0 0.0
2014-Sep-25 06:33N 43°33' E 010°18'0 0.0
2014-Sep-25 05:33N 43°33' E 010°18'0 0.1
2014-Sep-25 04:33N 43°33' E 010°18'9 9.3
2014-Sep-25 03:33N 43°25' E 010°11'1313.4
2014-Sep-25 02:33N 43°12' E 010°06'1313.1
2014-Sep-25 01:33N 42°60' E 010°01'141 5.5
2014-Sep-24 00:00N 41°18' E 012°12'8016.6 130 / 161015.0 5.4 23.0 23.0
2014-Sep-23 19:10N 40°38' E 013°44'1219.4
2014-Sep-23 18:33N 40°38' E 013°59'1716.4
2014-Sep-23 17:33N 40°48' E 014°17'2 0.1
2014-Sep-23 04:18N 40°50' E 014°17'912.4
2014-Sep-23 03:33N 40°42' E 014°09'1817.5
2014-Sep-23 02:33N 40°38' E 013°47'2019.7
2014-Sep-23 01:33N 40°40' E 013°21'10319.8
2014-Sep-22 20:21N 41°02' E 011°08'1719.8
2014-Sep-22 19:29N 41°06' E 010°46'1919.6
2014-Sep-22 18:32N 41°11' E 010°22'8712.3
2014-Sep-22 11:28N 41°17' E 008°27'1817.4
2014-Sep-22 10:25N 41°17' E 008°03'1820.6
2014-Sep-22 09:33N 41°17' E 007°39'1514.9
2014-Sep-22 08:33N 41°17' E 007°19'1717.1
2014-Sep-22 07:33N 41°17' E 006°56'1717.0
2014-Sep-22 06:34N 41°17' E 006°34'1717.2
2014-Sep-22 05:33N 41°17' E 006°11'1717.4
2014-Sep-22 04:34N 41°16' E 005°48'1817.5
2014-Sep-22 03:33N 41°16' E 005°24'6017.2
2014-Sep-22 00:04N 41°16' E 004°04'917.0
2014-Sep-21 23:33N 41°16' E 003°53'1616.6
2014-Sep-21 22:33N 41°17' E 003°31'1616.4
2014-Sep-21 21:33N 41°17' E 003°09'1616.1
2014-Sep-21 20:33N 41°17' E 002°48'1616.2
2014-Sep-21 19:33N 41°17' E 002°26'2 1.9
2014-Sep-21 18:33N 41°17' E 002°24'3 2.6
2014-Sep-21 17:33N 41°16' E 002°27'1313.1
2014-Sep-21 16:33N 41°19' E 002°10'2 2.4
2014-Sep-21 15:31N 41°22' E 002°11'0 0.0
2014-Sep-21 14:20N 41°22' E 002°11'0 0.0
2014-Sep-21 13:33N 41°22' E 002°11'0 0.0
2014-Sep-21 12:31N 41°22' E 002°11'0 0.0
2014-Sep-21 11:17N 41°22' E 002°11'0 0.0
2014-Sep-21 09:06N 41°22' E 002°11'0 0.0
2014-Sep-21 08:13N 41°22' E 002°11'0 0.0
2014-Sep-21 07:08N 41°22' E 002°11'0 0.0
2014-Sep-21 06:32N 41°22' E 002°11'0 0.0
2014-Sep-21 05:33N 41°22' E 002°11'0 0.0
2014-Sep-21 04:10N 41°22' E 002°11'0 0.0
2014-Sep-21 03:28N 41°22' E 002°11'0 0.0
2014-Sep-21 02:33N 41°22' E 002°11'4 4.4
2014-Sep-21 01:33N 41°17' E 002°11'1515.4
2014-Sep-21 00:33N 41°02' E 002°11'1525.9
2014-Sep-21 00:00N 40°48' E 002°06'   190 / 171016.0 5.4 25.0
Track history (hours):
 
Tides and Currents Weather Stations Pressure Air Temp Water Temp Dewpoint Dewpoint Depression Visibility Wind Speed Wind Dir Waves Ship Positions

Norwegian Epic

Last reported at 2014-Oct-01 00:00 UTC. Time now 2014-Oct-01 20:16 UTC.
Position N 41°18' E 012°12'.

Length 329 m; draft 9 m.

Type: Passenger vessel. MMSI: 311018500.

Wind from 330 at 3 knots

Barometer 1024.0 mb
Air temperature 22.0 ° C
Visibility: greater than 5.4 NM
Water temperature 23.0 ° C

Date/timePositionNaut miles runAvg speedWind from/ knotsBaromVisibWave heightAir tempDewpointWater temp
2014-Oct-01 00:00N 41°18' E 012°12'62 2.6 330 / 31024.0 5.4 22.0 23.0
2014-Sep-30 00:00N 40°36' E 013°12'29916.2 180 / 21027.010.8 22.0 23.0
2014-Sep-29 05:32N 41°17' E 006°40'1616.4
2014-Sep-29 04:32N 41°17' E 006°19'1616.1
2014-Sep-29 03:33N 41°16' E 005°58'1616.2
2014-Sep-29 02:33N 41°16' E 005°36'2216.4
2014-Sep-29 01:13N 41°16' E 005°07'8715.3
2014-Sep-28 19:31N 41°16' E 003°11'1916.1
2014-Sep-28 18:19N 41°16' E 002°45'1216.2
2014-Sep-28 17:33N 41°16' E 002°29'15 7.2
2014-Sep-28 15:31N 41°22' E 002°11'0 0.0
2014-Sep-28 07:31N 41°22' E 002°11'0 0.0
2014-Sep-28 02:24N 41°22' E 002°11'10 7.7
2014-Sep-28 01:09N 41°12' E 002°11'1016.8
2014-Sep-28 00:33N 41°02' E 002°12'1526.0
2014-Sep-28 00:00N 40°48' E 002°06'511.7 100 / 201022.0 5.4 24.0 23.0
2014-Sep-27 23:33N 40°45' E 002°11'1818.2
2014-Sep-27 22:33N 40°27' E 002°11'2019.6
2014-Sep-27 21:33N 40°07' E 002°12'2019.7
2014-Sep-27 20:33N 39°47' E 002°13'1818.2
2014-Sep-27 19:33N 39°30' E 002°19'1414.0
2014-Sep-27 18:33N 39°30' E 002°37'4 3.5
2014-Sep-27 17:33N 39°33' E 002°38'0 0.0
2014-Sep-27 16:33N 39°33' E 002°38'0 0.0
2014-Sep-27 15:31N 39°33' E 002°38'0 0.0
2014-Sep-27 14:32N 39°33' E 002°38'0 0.0
2014-Sep-27 13:32N 39°33' E 002°38'0 0.0
2014-Sep-27 12:33N 39°33' E 002°38'0 0.0
2014-Sep-27 11:34N 39°33' E 002°38'0 0.0
2014-Sep-27 10:33N 39°33' E 002°38'8 8.2
2014-Sep-27 09:33N 39°26' E 002°33'1615.5
2014-Sep-27 08:32N 39°32' E 002°15'1818.6
2014-Sep-27 07:33N 39°48' E 002°27'2020.4
2014-Sep-27 06:33N 40°04' E 002°44'2020.3
2014-Sep-27 05:33N 40°19' E 003°02'2020.5
2014-Sep-27 04:33N 40°33' E 003°21'9321.7
2014-Sep-27 00:16N 41°37' E 004°51'2 8.2
2014-Sep-27 00:00N 41°36' E 004°54'1534.8 340 / 81021.0 21.0 24.0
2014-Sep-26 23:33N 41°48' E 005°06'2222.2
2014-Sep-26 22:33N 42°05' E 005°26'2222.0
2014-Sep-26 21:33N 42°21' E 005°46'2120.9
2014-Sep-26 20:33N 42°35' E 006°07'2020.0
2014-Sep-26 19:33N 42°49' E 006°26'2020.0
2014-Sep-26 18:33N 43°04' E 006°45'2019.5
2014-Sep-26 17:33N 43°21' E 006°58'1211.4
2014-Sep-26 16:33N 43°32' E 007°01'0 0.0
2014-Sep-26 15:27N 43°32' E 007°01'0 0.0
2014-Sep-26 14:31N 43°32' E 007°01'0 0.0
2014-Sep-26 13:29N 43°32' E 007°01'0 0.0
2014-Sep-26 12:29N 43°32' E 007°01'0 0.0
2014-Sep-26 11:30N 43°32' E 007°01'0 0.0
2014-Sep-26 10:31N 43°32' E 007°01'0 0.0
2014-Sep-26 09:31N 43°32' E 007°01'0 0.0
2014-Sep-26 08:32N 43°32' E 007°01'0 0.0
2014-Sep-26 07:33N 43°32' E 007°01'0 0.0
2014-Sep-26 06:33N 43°32' E 007°01'0 0.0
2014-Sep-26 05:31N 43°32' E 007°01'2 2.1
2014-Sep-26 04:34N 43°30' E 007°01'1414.1
2014-Sep-26 03:34N 43°28' E 007°20'1514.8
2014-Sep-26 02:33N 43°29' E 007°41'3113.3
2014-Sep-26 00:11N 43°30' E 008°24'630.7
2014-Sep-26 00:00N 43°24' E 008°24'1023.1 050 / 111018.027.0 22.0 23.0
2014-Sep-25 23:33N 43°30' E 008°35'1312.7
2014-Sep-25 22:33N 43°31' E 008°52'1212.4
2014-Sep-25 21:33N 43°31' E 009°09'1212.2
2014-Sep-25 20:33N 43°31' E 009°26'1212.3
2014-Sep-25 19:33N 43°32' E 009°43'1212.5
2014-Sep-25 18:33N 43°31' E 010°00'1110.8
2014-Sep-25 17:33N 43°32' E 010°15'2 2.0
2014-Sep-25 16:32N 43°33' E 010°18'0 0.0
2014-Sep-25 15:33N 43°33' E 010°18'0 0.0
2014-Sep-25 14:30N 43°33' E 010°18'0 0.0
2014-Sep-25 13:31N 43°33' E 010°18'0 0.0
2014-Sep-25 12:32N 43°33' E 010°18'0 0.0
2014-Sep-25 11:29N 43°33' E 010°18'0 0.0
2014-Sep-25 10:33N 43°33' E 010°18'0 0.0
2014-Sep-25 09:31N 43°33' E 010°18'0 0.0
2014-Sep-25 08:31N 43°33' E 010°18'0 0.0
2014-Sep-25 07:32N 43°33' E 010°18'0 0.0
2014-Sep-25 06:33N 43°33' E 010°18'0 0.0
2014-Sep-25 05:33N 43°33' E 010°18'0 0.1
2014-Sep-25 04:33N 43°33' E 010°18'9 9.3
2014-Sep-25 03:33N 43°25' E 010°11'1313.4
2014-Sep-25 02:33N 43°12' E 010°06'1313.1
2014-Sep-25 01:33N 42°60' E 010°01'141 5.5
2014-Sep-24 00:00N 41°18' E 012°12'8016.6 130 / 161015.0 5.4 23.0 23.0
2014-Sep-23 19:10N 40°38' E 013°44'1219.4
2014-Sep-23 18:33N 40°38' E 013°59'1716.4
2014-Sep-23 17:33N 40°48' E 014°17'2 0.1
2014-Sep-23 04:18N 40°50' E 014°17'912.4
2014-Sep-23 03:33N 40°42' E 014°09'1817.5
2014-Sep-23 02:33N 40°38' E 013°47'2019.7
2014-Sep-23 01:33N 40°40' E 013°21'10319.8
2014-Sep-22 20:21N 41°02' E 011°08'1719.8
2014-Sep-22 19:29N 41°06' E 010°46'1919.6
2014-Sep-22 18:32N 41°11' E 010°22'8712.3
2014-Sep-22 11:28N 41°17' E 008°27'1817.4
2014-Sep-22 10:25N 41°17' E 008°03'1820.6
2014-Sep-22 09:33N 41°17' E 007°39'1514.9
2014-Sep-22 08:33N 41°17' E 007°19'1717.1
2014-Sep-22 07:33N 41°17' E 006°56'1717.0
2014-Sep-22 06:34N 41°17' E 006°34'1717.2
2014-Sep-22 05:33N 41°17' E 006°11'1717.4
2014-Sep-22 04:34N 41°16' E 005°48'1817.5
2014-Sep-22 03:33N 41°16' E 005°24'6017.2
2014-Sep-22 00:04N 41°16' E 004°04'917.0
2014-Sep-21 23:33N 41°16' E 003°53'1616.6
2014-Sep-21 22:33N 41°17' E 003°31'1616.4
2014-Sep-21 21:33N 41°17' E 003°09'1616.1
2014-Sep-21 20:33N 41°17' E 002°48'1616.2
2014-Sep-21 19:33N 41°17' E 002°26'2 1.9
2014-Sep-21 18:33N 41°17' E 002°24'3 2.6
2014-Sep-21 17:33N 41°16' E 002°27'1313.1
2014-Sep-21 16:33N 41°19' E 002°10'2 2.4
2014-Sep-21 15:31N 41°22' E 002°11'0 0.0
2014-Sep-21 14:20N 41°22' E 002°11'0 0.0
2014-Sep-21 13:33N 41°22' E 002°11'0 0.0
2014-Sep-21 12:31N 41°22' E 002°11'0 0.0
2014-Sep-21 11:17N 41°22' E 002°11'0 0.0
2014-Sep-21 09:06N 41°22' E 002°11'0 0.0
2014-Sep-21 08:13N 41°22' E 002°11'0 0.0
2014-Sep-21 07:08N 41°22' E 002°11'0 0.0
2014-Sep-21 06:32N 41°22' E 002°11'0 0.0
2014-Sep-21 05:33N 41°22' E 002°11'0 0.0
2014-Sep-21 04:10N 41°22' E 002°11'0 0.0
2014-Sep-21 03:28N 41°22' E 002°11'0 0.0
2014-Sep-21 02:33N 41°22' E 002°11'4 4.4
2014-Sep-21 01:33N 41°17' E 002°11'1515.4
2014-Sep-21 00:33N 41°02' E 002°11'1525.9
2014-Sep-21 00:00N 40°48' E 002°06'   190 / 171016.0 5.4 25.0

Dump ship's entire track history